Time,TemperatureF,DewpointF,PressureIn,WindDirection,WindDirectionDegrees,WindSpeedMPH,WindSpeedGustMPH,Humidity,HourlyPrecipIn,Conditions,Clouds,dailyrainin,SoftwareType,DateUTC
2013-01-25 00:00:00,37.8,17.8,30.40,NE,53,0.0,2.0,44,0.00,,,0.00,meteohub,2013-01-25 05:00:00,
2013-01-25 00:01:00,37.8,18.3,30.40,NE,56,0.0,1.0,45,0.00,,,0.00,meteohub,2013-01-25 05:01:00,
2013-01-25 00:03:00,37.8,17.8,30.40,NE,38,1.0,1.0,44,0.00,,,0.00,meteohub,2013-01-25 05:03:00,
2013-01-25 00:05:00,37.8,17.8,30.40,NNE,26,0.0,2.0,44,0.00,,,0.00,meteohub,2013-01-25 05:05:00,
2013-01-25 00:10:00,37.9,18.0,30.40,ENE,57,0.0,2.0,44,0.00,,,0.00,meteohub,2013-01-25 05:10:00,
2013-01-25 00:15:00,38.1,17.6,30.40,ENE,58,1.0,2.0,43,0.00,,,0.00,meteohub,2013-01-25 05:15:00,
2013-01-25 00:20:00,38.3,17.8,30.41,NE,55,1.0,5.0,43,0.00,,,0.00,meteohub,2013-01-25 05:20:00,
2013-01-25 00:25:00,38.5,18.0,30.42,NE,40,0.0,6.0,43,0.00,,,0.00,meteohub,2013-01-25 05:25:00,
2013-01-25 00:30:00,38.7,18.7,30.42,NNE,24,1.0,6.0,44,0.00,,,0.00,meteohub,2013-01-25 05:30:00,
2013-01-25 00:35:00,38.7,19.2,30.43,NE,53,1.0,6.0,45,0.00,,,0.00,meteohub,2013-01-25 05:35:00,
2013-01-25 00:40:00,38.7,20.1,30.43,East,79,0.0,4.0,47,0.00,,,0.00,meteohub,2013-01-25 05:40:00,
2013-01-25 00:45:00,38.8,20.8,30.42,NNE,24,0.0,4.0,48,0.00,,,0.00,meteohub,2013-01-25 05:45:00,
2013-01-25 00:50:00,38.8,21.4,30.42,SSW,192,2.0,5.0,49,0.00,,,0.00,meteohub,2013-01-25 05:50:00,
2013-01-25 00:56:00,38.8,21.4,30.42,ESE,117,2.0,5.0,49,0.00,,,0.00,meteohub,2013-01-25 05:56:00,
2013-01-25 01:01:00,38.7,21.6,30.42,ENE,71,0.0,9.0,50,0.00,,,0.00,meteohub,2013-01-25 06:01:00,
2013-01-25 01:06:00,38.5,21.4,30.41,South,188,0.0,9.0,50,0.00,,,0.00,meteohub,2013-01-25 06:06:00,
2013-01-25 01:11:00,38.5,21.4,30.42,NE,55,3.0,9.0,50,0.00,,,0.00,meteohub,2013-01-25 06:11:00,
2013-01-25 01:16:00,38.3,21.2,30.41,SE,132,0.0,7.0,50,0.00,,,0.00,meteohub,2013-01-25 06:16:00,
2013-01-25 01:21:00,38.1,21.2,30.42,NE,47,0.0,7.0,50,0.00,,,0.00,meteohub,2013-01-25 06:21:00,
2013-01-25 01:26:00,38.1,21.6,30.42,SSE,161,1.0,9.0,51,0.00,,,0.00,meteohub,2013-01-25 06:26:00,
2013-01-25 01:31:00,37.9,21.4,30.42,NNE,28,5.0,9.0,51,0.00,,,0.00,meteohub,2013-01-25 06:31:00,
2013-01-25 01:36:00,37.8,21.2,30.42,WSW,247,0.0,9.0,51,0.00,,,0.00,meteohub,2013-01-25 06:36:00,
2013-01-25 01:41:00,37.8,20.8,30.42,ENE,71,3.0,6.0,50,0.00,,,0.00,meteohub,2013-01-25 06:41:00,
2013-01-25 01:46:00,37.6,20.7,30.42,East,92,1.0,7.0,50,0.00,,,0.00,meteohub,2013-01-25 06:46:00,
2013-01-25 01:51:00,37.4,20.5,30.42,SE,125,1.0,7.0,50,0.00,,,0.00,meteohub,2013-01-25 06:51:00,
2013-01-25 01:56:00,37.2,20.3,30.42,ENE,78,0.0,7.0,50,0.00,,,0.00,meteohub,2013-01-25 06:56:00,
2013-01-25 02:02:00,37.0,20.1,30.42,SE,135,0.0,5.0,50,0.00,,,0.00,meteohub,2013-01-25 07:02:00,
2013-01-25 02:07:00,37.0,20.1,30.41,East,80,1.0,5.0,50,0.00,,,0.00,meteohub,2013-01-25 07:07:00,
2013-01-25 02:12:00,36.9,19.4,30.41,South,182,2.0,5.0,49,0.00,,,0.00,meteohub,2013-01-25 07:12:00,
2013-01-25 02:17:00,36.7,19.4,30.42,East,90,0.0,9.0,49,0.00,,,0.00,meteohub,2013-01-25 07:17:00,
2013-01-25 02:22:00,36.7,19.4,30.42,ENE,70,1.0,9.0,49,0.00,,,0.00,meteohub,2013-01-25 07:22:00,
2013-01-25 02:27:00,36.5,18.7,30.43,NE,45,2.0,9.0,48,0.00,,,0.00,meteohub,2013-01-25 07:27:00,
2013-01-25 02:32:00,36.3,18.5,30.43,SSE,159,1.0,6.0,48,0.00,,,0.00,meteohub,2013-01-25 07:32:00,
2013-01-25 02:37:00,36.3,18.5,30.43,ENE,67,0.0,6.0,48,0.00,,,0.00,meteohub,2013-01-25 07:37:00,
2013-01-25 02:42:00,36.3,18.5,30.43,NE,40,4.0,5.0,48,0.00,,,0.00,meteohub,2013-01-25 07:42:00,
2013-01-25 02:47:00,36.1,18.3,30.43,NE,35,0.0,5.0,48,0.00,,,0.00,meteohub,2013-01-25 07:47:00,
2013-01-25 02:52:00,36.0,17.6,30.42,NNE,19,2.0,5.0,47,0.00,,,0.00,meteohub,2013-01-25 07:52:00,
2013-01-25 02:57:00,35.8,17.1,30.43,ENE,78,0.0,8.0,46,0.00,,,0.00,meteohub,2013-01-25 07:57:00,
2013-01-25 03:02:00,35.6,17.8,30.42,NE,52,0.0,8.0,48,0.00,,,0.00,meteohub,2013-01-25 08:02:00,
2013-01-25 03:07:00,35.4,16.7,30.42,NE,35,0.0,8.0,46,0.00,,,0.00,meteohub,2013-01-25 08:07:00,
2013-01-25 03:12:00,35.2,17.1,30.43,NE,44,3.0,7.0,47,0.00,,,0.00,meteohub,2013-01-25 08:12:00,
2013-01-25 03:17:00,35.2,17.1,30.43,ESE,123,0.0,6.0,47,0.00,,,0.00,meteohub,2013-01-25 08:17:00,
2013-01-25 03:22:00,35.1,16.3,30.43,NNE,32,4.0,6.0,46,0.00,,,0.00,meteohub,2013-01-25 08:22:00,
2013-01-25 03:28:00,34.9,16.7,30.43,SSW,207,1.0,5.0,47,0.00,,,0.00,meteohub,2013-01-25 08:28:00,
2013-01-25 03:33:00,34.9,16.2,30.43,NE,40,0.0,5.0,46,0.00,,,0.00,meteohub,2013-01-25 08:33:00,
2013-01-25 03:38:00,34.7,16.5,30.43,NNE,32,0.0,5.0,47,0.00,,,0.00,meteohub,2013-01-25 08:38:00,
2013-01-25 03:43:00,34.7,16.0,30.44,ESE,103,0.0,5.0,46,0.00,,,0.00,meteohub,2013-01-25 08:43:00,
2013-01-25 03:48:00,34.5,15.8,30.44,NNE,20,0.0,5.0,46,0.00,,,0.00,meteohub,2013-01-25 08:48:00,
2013-01-25 03:53:00,34.3,16.2,30.44,North,0,1.0,5.0,47,0.00,,,0.00,meteohub,2013-01-25 08:53:00,
2013-01-25 03:58:00,34.3,15.3,30.43,NE,45,0.0,5.0,45,0.00,,,0.00,meteohub,2013-01-25 08:58:00,
2013-01-25 04:03:00,34.3,15.6,30.43,East,85,0.0,5.0,46,0.00,,,0.00,meteohub,2013-01-25 09:03:00,
2013-01-25 04:08:00,34.2,15.6,30.43,ENE,57,0.0,5.0,46,0.00,,,0.00,meteohub,2013-01-25 09:08:00,
2013-01-25 04:13:00,34.2,15.6,30.42,ENE,67,0.0,5.0,46,0.00,,,0.00,meteohub,2013-01-25 09:13:00,
2013-01-25 04:18:00,34.2,15.6,30.42,NE,46,0.0,7.0,46,0.00,,,0.00,meteohub,2013-01-25 09:18:00,
2013-01-25 04:23:00,34.0,15.4,30.40,North,5,2.0,7.0,46,0.00,,,0.00,meteohub,2013-01-25 09:23:00,
2013-01-25 04:28:00,34.0,15.4,30.42,NNE,19,0.0,7.0,46,0.00,,,0.00,meteohub,2013-01-25 09:28:00,
2013-01-25 04:33:00,33.8,15.6,30.41,ESE,104,0.0,5.0,47,0.00,,,0.00,meteohub,2013-01-25 09:33:00,
2013-01-25 04:38:00,33.6,15.1,30.41,ENE,78,1.0,5.0,46,0.00,,,0.00,meteohub,2013-01-25 09:38:00,
2013-01-25 04:43:00,33.6,15.6,30.40,SSE,151,4.0,5.0,47,0.00,,,0.00,meteohub,2013-01-25 09:43:00,
2013-01-25 04:44:00,33.6,15.6,30.40,SSE,151,4.0,5.0,47,0.00,,,0.00,meteohub,2013-01-25 09:44:00,
2013-01-25 04:52:00,33.4,14.9,30.40,ESE,103,1.0,5.0,46,0.00,,,0.00,meteohub,2013-01-25 09:52:00,
2013-01-25 04:57:00,33.4,14.4,30.40,South,190,0.0,4.0,45,0.00,,,0.00,meteohub,2013-01-25 09:57:00,
2013-01-25 05:02:00,33.3,14.2,30.41,SSE,155,2.0,6.0,45,0.00,,,0.00,meteohub,2013-01-25 10:02:00,
2013-01-25 05:07:00,33.1,13.5,30.41,NE,36,2.0,6.0,44,0.00,,,0.00,meteohub,2013-01-25 10:07:00,
2013-01-25 05:12:00,33.1,15.1,30.41,SSE,163,0.0,6.0,47,0.00,,,0.00,meteohub,2013-01-25 10:12:00,
2013-01-25 05:17:00,32.7,17.1,30.42,NNE,32,0.0,6.0,52,0.00,,,0.00,meteohub,2013-01-25 10:17:00,
2013-01-25 05:22:00,32.4,17.6,30.42,SSE,147,0.0,6.0,54,0.00,,,0.00,meteohub,2013-01-25 10:22:00,
2013-01-25 05:27:00,32.0,17.2,30.42,NE,35,2.0,5.0,54,0.00,,,0.00,meteohub,2013-01-25 10:27:00,
2013-01-25 05:32:00,31.8,16.7,30.42,NNW,336,0.0,5.0,53,0.00,,,0.00,meteohub,2013-01-25 10:32:00,
2013-01-25 05:37:00,31.8,16.7,30.41,SE,142,0.0,4.0,53,0.00,,,0.00,meteohub,2013-01-25 10:37:00,
2013-01-25 05:42:00,31.6,16.0,30.40,ESE,109,0.0,7.0,52,0.00,,,0.00,meteohub,2013-01-25 10:42:00,
2013-01-25 05:47:00,31.6,15.6,30.40,ESE,123,0.0,7.0,51,0.00,,,0.00,meteohub,2013-01-25 10:47:00,
2013-01-25 05:52:00,31.6,16.0,30.41,ENE,76,0.0,7.0,52,0.00,,,0.00,meteohub,2013-01-25 10:52:00,
2013-01-25 05:57:00,31.6,15.6,30.40,SE,142,1.0,4.0,51,0.00,,,0.00,meteohub,2013-01-25 10:57:00,
2013-01-25 06:02:00,31.6,16.0,30.40,SE,141,0.0,6.0,52,0.00,,,0.00,meteohub,2013-01-25 11:02:00,
2013-01-25 06:07:00,31.6,15.1,30.40,ESE,111,2.0,6.0,50,0.00,,,0.00,meteohub,2013-01-25 11:07:00,
2013-01-25 06:12:00,31.6,15.1,30.40,NE,40,0.0,6.0,50,0.00,,,0.00,meteohub,2013-01-25 11:12:00,
2013-01-25 06:17:00,31.6,15.1,30.41,SSE,165,0.0,4.0,50,0.00,,,0.00,meteohub,2013-01-25 11:17:00,
2013-01-25 06:22:00,31.8,15.3,30.41,ENE,57,2.0,4.0,50,0.00,,,0.00,meteohub,2013-01-25 11:22:00,
2013-01-25 06:27:00,31.6,15.6,30.41,East,82,0.0,4.0,51,0.00,,,0.00,meteohub,2013-01-25 11:27:00,
2013-01-25 06:32:00,31.6,14.7,30.41,SSE,161,0.0,4.0,49,0.00,,,0.00,meteohub,2013-01-25 11:32:00,
2013-01-25 06:37:00,31.6,15.1,30.41,SSE,161,0.0,4.0,50,0.00,,,0.00,meteohub,2013-01-25 11:37:00,
2013-01-25 06:42:00,31.6,15.6,30.41,SE,144,0.0,5.0,51,0.00,,,0.00,meteohub,2013-01-25 11:42:00,
2013-01-25 06:47:00,31.6,14.7,30.41,SE,144,0.0,5.0,49,0.00,,,0.00,meteohub,2013-01-25 11:47:00,
2013-01-25 06:52:00,31.6,15.1,30.41,SE,141,0.0,5.0,50,0.00,,,0.00,meteohub,2013-01-25 11:52:00,
2013-01-25 06:57:00,31.6,15.1,30.41,SW,223,0.0,2.0,50,0.00,,,0.00,meteohub,2013-01-25 11:57:00,
2013-01-25 07:02:00,31.6,14.7,30.41,ESE,117,1.0,4.0,49,0.00,,,0.00,meteohub,2013-01-25 12:02:00,
2013-01-25 07:07:00,31.6,14.7,30.41,South,190,1.0,4.0,49,0.00,,,0.00,meteohub,2013-01-25 12:07:00,
2013-01-25 07:12:00,31.6,15.1,30.41,ESE,117,0.0,4.0,50,0.00,,,0.00,meteohub,2013-01-25 12:12:00,
2013-01-25 07:17:00,31.6,15.6,30.41,ESE,117,0.0,4.0,51,0.00,,,0.00,meteohub,2013-01-25 12:17:00,
2013-01-25 07:22:00,31.6,15.1,30.41,SSW,206,1.0,4.0,50,0.00,,,0.00,meteohub,2013-01-25 12:22:00,
2013-01-25 07:27:00,31.6,15.1,30.40,SSW,205,0.0,2.0,50,0.00,,,0.00,meteohub,2013-01-25 12:27:00,
2013-01-25 07:32:00,31.6,15.1,30.41,SW,218,0.0,2.0,50,0.00,,,0.00,meteohub,2013-01-25 12:32:00,
2013-01-25 07:37:00,31.6,15.6,30.41,North,5,0.0,2.0,51,0.00,,,0.00,meteohub,2013-01-25 12:37:00,
2013-01-25 07:42:00,31.6,15.1,30.41,ESE,119,1.0,5.0,50,0.00,,,0.00,meteohub,2013-01-25 12:42:00,
2013-01-25 07:47:00,31.5,14.9,30.42,NNE,19,0.0,5.0,50,0.00,,,0.00,meteohub,2013-01-25 12:47:00,
2013-01-25 07:52:00,31.5,14.9,30.40,SE,136,2.0,5.0,50,0.00,,,0.00,meteohub,2013-01-25 12:52:00,
2013-01-25 07:57:00,31.5,14.9,30.40,ESE,114,0.0,4.0,50,0.00,,,0.00,meteohub,2013-01-25 12:57:00,
2013-01-25 08:02:00,31.5,14.9,30.40,ENE,76,0.0,5.0,50,0.00,,,0.00,meteohub,2013-01-25 13:02:00,
2013-01-25 08:07:00,31.3,14.7,30.41,SE,144,0.0,6.0,50,0.00,,,0.00,meteohub,2013-01-25 13:07:00,
2013-01-25 08:12:00,31.3,14.7,30.40,ESE,118,0.0,6.0,50,0.00,,,0.00,meteohub,2013-01-25 13:12:00,
2013-01-25 08:17:00,31.3,14.7,30.40,SE,142,0.0,6.0,50,0.00,,,0.00,meteohub,2013-01-25 13:17:00,
2013-01-25 08:22:00,31.3,14.7,30.40,NNE,12,1.0,5.0,50,0.00,,,0.00,meteohub,2013-01-25 13:22:00,
2013-01-25 08:27:00,31.3,15.3,30.40,South,180,0.0,5.0,51,0.00,,,0.00,meteohub,2013-01-25 13:27:00,
2013-01-25 08:32:00,31.3,15.3,30.40,South,180,0.0,5.0,51,0.00,,,0.00,meteohub,2013-01-25 13:32:00,
2013-01-25 08:37:00,31.3,14.7,30.40,ESE,120,0.0,4.0,50,0.00,,,0.00,meteohub,2013-01-25 13:37:00,
2013-01-25 08:42:00,31.3,15.3,30.40,SSE,157,0.0,5.0,51,0.00,,,0.00,meteohub,2013-01-25 13:42:00,
2013-01-25 08:47:00,31.5,15.4,30.40,SSE,165,1.0,5.0,51,0.00,,,0.00,meteohub,2013-01-25 13:47:00,
2013-01-25 08:52:00,31.5,14.9,30.40,ENE,71,2.0,5.0,50,0.00,,,0.00,meteohub,2013-01-25 13:52:00,
2013-01-25 08:57:00,31.5,14.9,30.40,SE,128,0.0,8.0,50,0.00,,,0.00,meteohub,2013-01-25 13:57:00,
2013-01-25 09:02:00,31.5,15.4,30.40,SSE,163,0.0,8.0,51,0.00,,,0.00,meteohub,2013-01-25 14:02:00,
2013-01-25 09:07:00,31.5,15.8,30.40,SE,127,0.0,8.0,52,0.00,,,0.00,meteohub,2013-01-25 14:07:00,
2013-01-25 09:12:00,31.5,15.8,30.40,SE,126,0.0,7.0,52,0.00,,,0.00,meteohub,2013-01-25 14:12:00,
2013-01-25 09:17:00,31.6,16.0,30.40,SSE,153,0.0,6.0,52,0.00,,,0.00,meteohub,2013-01-25 14:17:00,
2013-01-25 09:22:00,31.6,16.5,30.40,South,171,0.0,6.0,53,0.00,,,0.00,meteohub,2013-01-25 14:22:00,
2013-01-25 09:27:00,31.6,16.0,30.40,SE,144,0.0,6.0,52,0.00,,,0.00,meteohub,2013-01-25 14:27:00,
2013-01-25 09:32:00,31.6,16.5,30.40,ENE,78,2.0,5.0,53,0.00,,,0.00,meteohub,2013-01-25 14:32:00,
2013-01-25 09:37:00,31.8,16.7,30.40,SW,222,0.0,4.0,53,0.00,,,0.00,meteohub,2013-01-25 14:37:00,
2013-01-25 09:42:00,31.8,16.7,30.40,SSE,147,0.0,4.0,53,0.00,,,0.00,meteohub,2013-01-25 14:42:00,
2013-01-25 09:47:00,31.8,16.7,30.39,NW,309,0.0,7.0,53,0.00,,,0.00,meteohub,2013-01-25 14:47:00,
2013-01-25 09:52:00,32.0,17.2,30.38,SE,142,2.0,7.0,54,0.00,,,0.00,meteohub,2013-01-25 14:52:00,
2013-01-25 09:57:00,32.4,17.1,30.39,WSW,244,2.0,7.0,53,0.00,,,0.00,meteohub,2013-01-25 14:57:00,
2013-01-25 10:02:00,32.5,16.9,30.39,South,177,0.0,5.0,52,0.00,,,0.00,meteohub,2013-01-25 15:02:00,
2013-01-25 10:07:00,32.7,17.1,30.39,South,177,0.0,5.0,52,0.00,,,0.00,meteohub,2013-01-25 15:07:00,
2013-01-25 10:12:00,32.7,17.4,30.39,South,169,0.0,5.0,53,0.00,,,0.00,meteohub,2013-01-25 15:12:00,
2013-01-25 10:17:00,32.5,17.2,30.39,East,92,0.0,7.0,53,0.00,,,0.00,meteohub,2013-01-25 15:17:00,
2013-01-25 10:22:00,32.5,16.9,30.38,SSE,167,0.0,7.0,52,0.00,,,0.00,meteohub,2013-01-25 15:22:00,
2013-01-25 10:27:00,32.5,17.2,30.38,South,173,0.0,7.0,53,0.00,,,0.00,meteohub,2013-01-25 15:27:00,
2013-01-25 10:32:00,32.7,17.4,30.38,SE,134,1.0,7.0,53,0.00,,,0.00,meteohub,2013-01-25 15:32:00,
2013-01-25 10:37:00,32.7,17.4,30.38,SSW,197,0.0,6.0,53,0.00,,,0.00,meteohub,2013-01-25 15:37:00,
2013-01-25 10:42:00,32.9,17.6,30.38,South,179,0.0,6.0,53,0.00,,,0.00,meteohub,2013-01-25 15:42:00,
2013-01-25 10:47:00,32.9,18.1,30.38,South,171,0.0,7.0,54,0.00,,,0.00,meteohub,2013-01-25 15:47:00,
2013-01-25 10:52:00,33.1,17.8,30.38,SSW,196,0.0,7.0,53,0.00,,,0.00,meteohub,2013-01-25 15:52:00,
2013-01-25 10:57:00,33.3,18.9,30.39,South,169,2.0,7.0,55,0.00,,,0.00,meteohub,2013-01-25 15:57:00,
2013-01-25 11:02:00,33.3,18.5,30.39,ESE,116,0.0,4.0,54,0.00,,,0.00,meteohub,2013-01-25 16:02:00,
2013-01-25 11:07:00,33.3,18.0,30.38,ESE,105,0.0,4.0,53,0.00,,,0.00,meteohub,2013-01-25 16:07:00,
2013-01-25 11:13:00,33.3,18.9,30.38,ESE,105,0.0,4.0,55,0.00,,,0.00,meteohub,2013-01-25 16:13:00,
2013-01-25 11:18:00,33.4,19.4,30.37,SSW,207,1.0,2.0,56,0.00,,,0.00,meteohub,2013-01-25 16:18:00,
2013-01-25 11:23:00,33.8,19.4,30.37,SW,232,0.0,2.0,55,0.00,,,0.00,meteohub,2013-01-25 16:23:00,
2013-01-25 11:28:00,34.2,19.8,30.36,SSW,201,0.0,5.0,55,0.00,,,0.00,meteohub,2013-01-25 16:28:00,
2013-01-25 11:33:00,34.5,19.9,30.35,WSW,248,0.0,5.0,55,0.00,,,0.00,meteohub,2013-01-25 16:33:00,
2013-01-25 11:38:00,35.4,20.8,30.36,SW,224,1.0,5.0,55,0.00,,,0.00,meteohub,2013-01-25 16:38:00,
2013-01-25 11:43:00,35.8,20.8,30.36,SW,216,0.0,4.0,54,0.00,,,0.00,meteohub,2013-01-25 16:43:00,
2013-01-25 11:48:00,35.8,20.8,30.36,South,180,0.0,4.0,54,0.00,,,0.00,meteohub,2013-01-25 16:48:00,
2013-01-25 11:53:00,35.8,21.2,30.35,WSW,242,0.0,6.0,55,0.00,,,0.00,meteohub,2013-01-25 16:53:00,
2013-01-25 11:58:00,35.8,21.2,30.35,WSW,246,2.0,6.0,55,0.00,,,0.00,meteohub,2013-01-25 16:58:00,
2013-01-25 12:03:00,36.0,22.3,30.34,SE,141,0.0,3.0,57,0.00,,,0.00,meteohub,2013-01-25 17:03:00,
2013-01-25 12:08:00,36.3,21.7,30.33,SE,143,1.0,3.0,55,0.00,,,0.00,meteohub,2013-01-25 17:08:00,
2013-01-25 12:13:00,36.9,22.6,30.33,SE,138,2.0,4.0,56,0.00,,,0.00,meteohub,2013-01-25 17:13:00,
2013-01-25 12:18:00,37.0,22.8,30.33,SW,220,0.0,6.0,56,0.00,,,0.00,meteohub,2013-01-25 17:18:00,
2013-01-25 12:23:00,37.2,22.1,30.32,East,98,1.0,6.0,54,0.00,,,0.00,meteohub,2013-01-25 17:23:00,
2013-01-25 12:28:00,37.0,21.9,30.32,NE,44,1.0,6.0,54,0.00,,,0.00,meteohub,2013-01-25 17:28:00,
2013-01-25 12:33:00,36.9,22.3,30.32,SSW,207,1.0,4.0,55,0.00,,,0.00,meteohub,2013-01-25 17:33:00,
2013-01-25 12:39:00,37.2,23.4,30.32,SSW,210,0.0,5.0,57,0.00,,,0.00,meteohub,2013-01-25 17:39:00,
2013-01-25 12:44:00,37.8,23.5,30.32,SE,140,0.0,5.0,56,0.00,,,0.00,meteohub,2013-01-25 17:44:00,
2013-01-25 12:49:00,38.3,23.5,30.31,ENE,72,0.0,5.0,55,0.00,,,0.00,meteohub,2013-01-25 17:49:00,
2013-01-25 12:54:00,38.3,23.5,30.31,SSW,213,0.0,2.0,55,0.00,,,0.00,meteohub,2013-01-25 17:54:00,
2013-01-25 12:59:00,38.3,23.9,30.31,East,101,0.0,4.0,56,0.00,,,0.00,meteohub,2013-01-25 17:59:00,
2013-01-25 13:04:00,38.1,23.9,30.31,SSW,213,0.0,4.0,56,0.00,,,0.00,meteohub,2013-01-25 18:04:00,
2013-01-25 13:09:00,38.3,23.9,30.30,SSW,213,0.0,5.0,56,0.00,,,0.00,meteohub,2013-01-25 18:09:00,
2013-01-25 13:14:00,38.5,24.1,30.29,SSE,161,0.0,5.0,56,0.00,,,0.00,meteohub,2013-01-25 18:14:00,
2013-01-25 13:19:00,38.5,24.6,30.29,SSE,149,0.0,5.0,57,0.00,,,0.00,meteohub,2013-01-25 18:19:00,
2013-01-25 13:24:00,38.5,25.0,30.29,SSE,148,0.0,2.0,58,0.00,,,0.00,meteohub,2013-01-25 18:24:00,
2013-01-25 13:29:00,38.5,24.6,30.28,SSE,149,0.0,2.0,57,0.00,,,0.00,meteohub,2013-01-25 18:29:00,
2013-01-25 13:34:00,38.7,25.2,30.28,SE,129,0.0,2.0,58,0.00,,,0.00,meteohub,2013-01-25 18:34:00,
2013-01-25 13:39:00,38.8,25.3,30.27,South,176,0.0,2.0,58,0.00,,,0.00,meteohub,2013-01-25 18:39:00,
2013-01-25 13:44:00,39.0,25.9,30.25,SSW,198,0.0,2.0,59,0.00,,,0.00,meteohub,2013-01-25 18:44:00,
2013-01-25 13:49:00,39.4,25.9,30.24,SSW,212,0.0,3.0,58,0.00,,,0.00,meteohub,2013-01-25 18:49:00,
2013-01-25 13:55:00,39.6,26.1,30.24,SSE,155,0.0,5.0,58,0.00,,,0.00,meteohub,2013-01-25 18:55:00,
2013-01-25 14:00:00,39.7,26.2,30.24,South,177,0.0,5.0,58,0.00,,,0.00,meteohub,2013-01-25 19:00:00,
2013-01-25 14:05:00,40.1,26.6,30.25,SSE,158,0.0,5.0,58,0.00,,,0.00,meteohub,2013-01-25 19:05:00,
2013-01-25 14:10:00,40.6,27.0,30.25,East,101,0.0,5.0,58,0.00,,,0.00,meteohub,2013-01-25 19:10:00,
2013-01-25 14:15:00,41.4,27.7,30.25,East,80,1.0,2.0,58,0.00,,,0.00,meteohub,2013-01-25 19:15:00,
2013-01-25 14:20:00,41.5,27.5,30.25,ESE,114,0.0,2.0,57,0.00,,,0.00,meteohub,2013-01-25 19:20:00,
2013-01-25 14:25:00,41.9,27.0,30.25,ESE,114,0.0,2.0,55,0.00,,,0.00,meteohub,2013-01-25 19:25:00,
2013-01-25 14:30:00,42.1,27.9,30.26,ESE,114,0.0,2.0,57,0.00,,,0.00,meteohub,2013-01-25 19:30:00,
2013-01-25 14:35:00,41.5,26.6,30.27,East,81,0.0,1.0,55,0.00,,,0.00,meteohub,2013-01-25 19:35:00,
2013-01-25 14:40:00,41.4,27.3,30.26,East,81,0.0,2.0,57,0.00,,,0.00,meteohub,2013-01-25 19:40:00,
2013-01-25 14:46:00,41.4,27.3,30.26,East,81,0.0,2.0,57,0.00,,,0.00,meteohub,2013-01-25 19:46:00,
2013-01-25 14:51:00,41.4,26.4,30.26,SSE,155,0.0,1.0,55,0.00,,,0.00,meteohub,2013-01-25 19:51:00,
2013-01-25 14:56:00,41.4,27.3,30.25,SSE,155,0.0,2.0,57,0.00,,,0.00,meteohub,2013-01-25 19:56:00,
2013-01-25 15:01:00,41.4,27.3,30.24,SSE,155,1.0,2.0,57,0.00,,,0.00,meteohub,2013-01-25 20:01:00,
2013-01-25 15:06:00,41.4,27.3,30.24,East,87,0.0,2.0,57,0.00,,,0.00,meteohub,2013-01-25 20:06:00,
2013-01-25 15:11:00,41.4,26.8,30.24,East,87,0.0,2.0,56,0.00,,,0.00,meteohub,2013-01-25 20:11:00,
2013-01-25 15:16:00,41.4,27.3,30.24,ENE,72,0.0,2.0,57,0.00,,,0.00,meteohub,2013-01-25 20:16:00,
2013-01-25 15:21:00,41.4,27.7,30.24,ENE,72,0.0,2.0,58,0.00,,,0.00,meteohub,2013-01-25 20:21:00,
2013-01-25 15:26:00,41.5,27.5,30.24,ENE,72,0.0,2.0,57,0.00,,,0.00,meteohub,2013-01-25 20:26:00,
2013-01-25 15:31:00,41.5,27.9,30.24,ENE,74,0.0,1.0,58,0.00,,,0.00,meteohub,2013-01-25 20:31:00,
2013-01-25 15:36:00,41.5,27.9,30.24,ENE,74,0.0,2.0,58,0.00,,,0.00,meteohub,2013-01-25 20:36:00,
2013-01-25 15:41:00,41.7,28.0,30.23,ENE,74,0.0,2.0,58,0.00,,,0.00,meteohub,2013-01-25 20:41:00,
2013-01-25 15:46:00,41.7,27.7,30.23,SE,127,0.0,2.0,57,0.00,,,0.00,meteohub,2013-01-25 20:46:00,
2013-01-25 15:51:00,41.7,27.1,30.23,SE,127,0.0,2.0,56,0.00,,,0.00,meteohub,2013-01-25 20:51:00,
2013-01-25 15:56:00,41.9,27.9,30.23,SE,127,1.0,2.0,57,0.00,,,0.00,meteohub,2013-01-25 20:56:00,
2013-01-25 16:01:00,41.7,27.1,30.23,NE,48,0.0,3.0,56,0.00,,,0.00,meteohub,2013-01-25 21:01:00,
2013-01-25 16:06:00,41.7,27.7,30.22,SSE,149,0.0,3.0,57,0.00,,,0.00,meteohub,2013-01-25 21:06:00,
2013-01-25 16:11:00,41.7,27.7,30.22,East,92,0.0,3.0,57,0.00,,,0.00,meteohub,2013-01-25 21:11:00,
2013-01-25 16:16:00,41.7,27.7,30.22,ESE,113,0.0,2.0,57,0.00,,,0.00,meteohub,2013-01-25 21:16:00,
2013-01-25 16:21:00,41.7,28.0,30.21,SW,221,0.0,2.0,58,0.00,,,0.00,meteohub,2013-01-25 21:21:00,
2013-01-25 16:26:00,42.1,28.4,30.22,SE,142,0.0,5.0,58,0.00,,,0.00,meteohub,2013-01-25 21:26:00,
2013-01-25 16:31:00,42.3,28.9,30.22,SE,142,0.0,5.0,59,0.00,,,0.00,meteohub,2013-01-25 21:31:00,
2013-01-25 16:36:00,42.4,28.2,30.22,NE,40,0.0,5.0,57,0.00,,,0.00,meteohub,2013-01-25 21:36:00,
2013-01-25 16:41:00,42.6,28.9,30.22,ESE,123,0.0,2.0,58,0.00,,,0.00,meteohub,2013-01-25 21:41:00,
2013-01-25 16:46:00,42.8,28.6,30.22,ESE,123,0.0,2.0,57,0.00,,,0.00,meteohub,2013-01-25 21:46:00,
2013-01-25 16:52:00,43.0,28.8,30.22,ESE,123,0.0,2.0,57,0.00,,,0.00,meteohub,2013-01-25 21:52:00,
2013-01-25 16:57:00,43.0,28.4,30.22,SE,134,0.0,1.0,56,0.00,,,0.00,meteohub,2013-01-25 21:57:00,
2013-01-25 17:02:00,43.0,28.8,30.22,SE,131,0.0,2.0,57,0.00,,,0.00,meteohub,2013-01-25 22:02:00,
2013-01-25 17:07:00,43.0,28.8,30.22,SSW,202,1.0,4.0,57,0.00,,,0.00,meteohub,2013-01-25 22:07:00,
2013-01-25 17:12:00,42.8,28.6,30.21,SSW,202,0.0,4.0,57,0.00,,,0.00,meteohub,2013-01-25 22:12:00,
2013-01-25 17:17:00,42.6,28.4,30.21,SSW,200,0.0,2.0,57,0.00,,,0.00,meteohub,2013-01-25 22:17:00,
2013-01-25 17:22:00,42.6,29.3,30.21,South,182,0.0,3.0,59,0.00,,,0.00,meteohub,2013-01-25 22:22:00,
2013-01-25 17:27:00,42.4,28.8,30.20,South,183,1.0,3.0,58,0.00,,,0.00,meteohub,2013-01-25 22:27:00,
2013-01-25 17:32:00,42.4,29.1,30.20,WSW,241,2.0,3.0,59,0.00,,,0.00,meteohub,2013-01-25 22:32:00,
2013-01-25 17:37:00,42.3,28.6,30.19,SSW,193,0.0,3.0,58,0.00,,,0.00,meteohub,2013-01-25 22:37:00,
2013-01-25 17:42:00,42.1,28.8,30.20,SSW,193,0.0,3.0,59,0.00,,,0.00,meteohub,2013-01-25 22:42:00,
2013-01-25 17:47:00,42.1,28.8,30.20,SSW,194,0.0,3.0,59,0.00,,,0.00,meteohub,2013-01-25 22:47:00,
2013-01-25 17:52:00,42.1,29.1,30.20,SSW,194,0.0,2.0,60,0.00,,,0.00,meteohub,2013-01-25 22:52:00,
2013-01-25 17:57:00,42.1,29.1,30.21,SSW,194,0.0,1.0,60,0.00,,,0.00,meteohub,2013-01-25 22:57:00,
2013-01-25 18:02:00,42.1,28.8,30.21,SSW,194,0.0,1.0,59,0.00,,,0.00,meteohub,2013-01-25 23:02:00,
2013-01-25 18:07:00,42.1,29.1,30.21,South,175,0.0,1.0,60,0.00,,,0.00,meteohub,2013-01-25 23:07:00,
2013-01-25 18:12:00,42.1,28.8,30.21,South,175,0.0,2.0,59,0.00,,,0.00,meteohub,2013-01-25 23:12:00,
2013-01-25 18:17:00,41.9,28.6,30.21,South,175,0.0,2.0,59,0.00,,,0.00,meteohub,2013-01-25 23:17:00,
2013-01-25 18:22:00,41.9,28.6,30.21,SSE,161,0.0,1.0,59,0.00,,,0.00,meteohub,2013-01-25 23:22:00,
2013-01-25 18:27:00,41.9,28.6,30.21,SSW,209,0.0,2.0,59,0.00,,,0.00,meteohub,2013-01-25 23:27:00,
2013-01-25 18:32:00,41.9,28.9,30.21,SSW,209,0.0,2.0,60,0.00,,,0.00,meteohub,2013-01-25 23:32:00,
2013-01-25 18:37:00,41.9,28.9,30.21,SSW,209,0.0,2.0,60,0.00,,,0.00,meteohub,2013-01-25 23:37:00,
2013-01-25 18:42:00,41.9,29.5,30.22,SSW,209,0.0,2.0,61,0.00,,,0.00,meteohub,2013-01-25 23:42:00,
2013-01-25 18:47:00,41.9,28.9,30.22,SSW,209,0.0,1.0,60,0.00,,,0.00,meteohub,2013-01-25 23:47:00,
2013-01-25 18:52:00,41.9,29.5,30.21,SSW,209,0.0,1.0,61,0.00,,,0.00,meteohub,2013-01-25 23:52:00,
2013-01-25 18:57:00,41.9,29.5,30.21,SSW,209,0.0,1.0,61,0.00,,,0.00,meteohub,2013-01-25 23:57:00,
2013-01-25 19:02:00,41.7,29.7,30.21,SSW,209,0.0,1.0,62,0.00,,,0.00,meteohub,2013-01-26 00:02:00,
2013-01-25 19:07:00,41.7,29.7,30.21,SSW,209,0.0,1.0,62,0.00,,,0.00,meteohub,2013-01-26 00:07:00,
2013-01-25 19:12:00,41.7,29.7,30.22,SSW,209,0.0,1.0,62,0.00,,,0.00,meteohub,2013-01-26 00:12:00,
2013-01-25 19:17:00,41.7,29.7,30.21,SSW,209,0.0,1.0,62,0.00,,,0.00,meteohub,2013-01-26 00:17:00,
2013-01-25 19:22:00,41.7,29.7,30.21,SSW,209,0.0,0.0,62,0.00,,,0.00,meteohub,2013-01-26 00:22:00,
2013-01-25 19:27:00,41.7,29.7,30.21,SSW,209,0.0,1.0,62,0.00,,,0.00,meteohub,2013-01-26 00:27:00,
2013-01-25 19:32:00,41.7,29.3,30.21,SSW,209,0.0,1.0,61,0.00,,,0.00,meteohub,2013-01-26 00:32:00,
2013-01-25 19:38:00,41.7,29.3,30.21,SSW,209,0.0,1.0,61,0.00,,,0.00,meteohub,2013-01-26 00:38:00,
2013-01-25 19:43:00,41.7,30.0,30.21,SSW,209,0.0,0.0,63,0.00,,,0.00,meteohub,2013-01-26 00:43:00,
2013-01-25 19:48:00,41.7,29.7,30.21,SSW,209,0.0,0.0,62,0.00,,,0.00,meteohub,2013-01-26 00:48:00,
2013-01-25 19:53:00,41.7,29.7,30.21,SSW,209,0.0,0.0,62,0.00,,,0.00,meteohub,2013-01-26 00:53:00,
2013-01-25 19:58:00,41.5,29.1,30.22,SSW,209,0.0,0.0,61,0.00,,,0.00,meteohub,2013-01-26 00:58:00,
2013-01-25 20:03:00,41.7,29.3,30.22,SSW,202,0.0,1.0,61,0.00,,,0.00,meteohub,2013-01-26 01:03:00,
2013-01-25 20:08:00,41.7,29.7,30.21,SSW,202,0.0,2.0,62,0.00,,,0.00,meteohub,2013-01-26 01:08:00,
2013-01-25 20:13:00,41.7,30.0,30.21,SSW,202,0.0,2.0,63,0.00,,,0.00,meteohub,2013-01-26 01:13:00,
2013-01-25 20:18:00,41.7,30.0,30.22,SSW,202,0.0,1.0,63,0.00,,,0.00,meteohub,2013-01-26 01:18:00,
2013-01-25 20:23:00,41.5,29.8,30.21,SSW,202,0.0,0.0,63,0.00,,,0.00,meteohub,2013-01-26 01:23:00,
2013-01-25 20:28:00,41.5,29.8,30.21,SSW,202,0.0,0.0,63,0.00,,,0.00,meteohub,2013-01-26 01:28:00,
2013-01-25 20:33:00,41.4,29.7,30.21,SSW,202,0.0,0.0,63,0.00,,,0.00,meteohub,2013-01-26 01:33:00,
2013-01-25 20:38:00,41.4,29.7,30.21,SSW,202,0.0,0.0,63,0.00,,,0.00,meteohub,2013-01-26 01:38:00,
2013-01-25 20:43:00,41.4,30.0,30.21,SSW,202,0.0,0.0,64,0.00,,,0.00,meteohub,2013-01-26 01:43:00,
2013-01-25 20:48:00,41.2,30.0,30.20,SSW,202,0.0,0.0,64,0.00,,,0.00,meteohub,2013-01-26 01:48:00,
2013-01-25 20:53:00,41.2,30.4,30.21,SSW,202,0.0,0.0,65,0.00,,,0.00,meteohub,2013-01-26 01:53:00,
2013-01-25 20:58:00,41.0,30.6,30.21,SSW,202,0.0,0.0,66,0.00,,,0.00,meteohub,2013-01-26 01:58:00,
2013-01-25 21:04:00,40.8,30.4,30.21,SSW,202,0.0,0.0,66,0.00,,,0.00,meteohub,2013-01-26 02:04:00,
2013-01-25 21:09:00,40.8,30.4,30.21,SSW,202,0.0,0.0,66,0.00,,,0.00,meteohub,2013-01-26 02:09:00,
2013-01-25 21:14:00,40.8,30.7,30.21,SSW,202,0.0,0.0,67,0.00,,,0.00,meteohub,2013-01-26 02:14:00,
2013-01-25 21:19:00,40.8,31.1,30.21,SSW,202,0.0,0.0,68,0.00,,,0.00,meteohub,2013-01-26 02:19:00,
2013-01-25 21:24:00,40.8,31.5,30.21,SSW,202,0.0,0.0,69,0.00,,,0.00,meteohub,2013-01-26 02:24:00,
2013-01-25 21:29:00,40.8,31.5,30.21,SSW,202,0.0,0.0,69,0.00,,,0.00,meteohub,2013-01-26 02:29:00,
2013-01-25 21:34:00,40.6,31.6,30.21,SSW,202,0.0,0.0,70,0.00,,,0.00,meteohub,2013-01-26 02:34:00,
2013-01-25 21:39:00,40.6,31.6,30.21,SSW,202,0.0,0.0,70,0.00,,,0.00,meteohub,2013-01-26 02:39:00,
2013-01-25 21:44:00,40.5,31.5,30.21,SSW,202,0.0,0.0,70,0.00,,,0.00,meteohub,2013-01-26 02:44:00,
2013-01-25 21:49:00,40.5,32.5,30.21,SSW,202,0.0,0.0,73,0.00,,,0.00,meteohub,2013-01-26 02:49:00,
2013-01-25 21:54:00,40.3,31.3,30.22,SSW,202,0.0,0.0,70,0.00,,,0.00,meteohub,2013-01-26 02:54:00,
2013-01-25 21:59:00,40.3,30.6,30.21,SSW,202,0.0,1.0,68,0.00,,,0.00,meteohub,2013-01-26 02:59:00,
2013-01-25 22:04:00,40.3,30.6,30.21,SSW,202,0.0,1.0,68,0.00,,,0.00,meteohub,2013-01-26 03:04:00,
2013-01-25 22:09:00,40.3,30.2,30.21,SSW,202,0.0,1.0,67,0.00,,,0.00,meteohub,2013-01-26 03:09:00,
2013-01-25 22:14:00,40.3,29.8,30.21,SSW,202,0.0,1.0,66,0.00,,,0.00,meteohub,2013-01-26 03:14:00,
2013-01-25 22:19:00,40.3,30.2,30.21,SSW,202,0.0,0.0,67,0.00,,,0.00,meteohub,2013-01-26 03:19:00,
2013-01-25 22:24:00,40.3,29.8,30.21,SSW,202,0.0,0.0,66,0.00,,,0.00,meteohub,2013-01-26 03:24:00,
2013-01-25 22:29:00,40.3,29.8,30.21,SSW,202,0.0,0.0,66,0.00,,,0.00,meteohub,2013-01-26 03:29:00,
2013-01-25 22:34:00,40.3,29.8,30.21,SSW,202,0.0,0.0,66,0.00,,,0.00,meteohub,2013-01-26 03:34:00,
2013-01-25 22:40:00,40.3,29.5,30.21,SSW,202,0.0,0.0,65,0.00,,,0.00,meteohub,2013-01-26 03:40:00,
2013-01-25 22:45:00,40.3,29.5,30.22,SSW,193,0.0,1.0,65,0.00,,,0.00,meteohub,2013-01-26 03:45:00,
2013-01-25 22:50:00,40.5,29.7,30.21,SSW,193,0.0,1.0,65,0.00,,,0.00,meteohub,2013-01-26 03:50:00,
2013-01-25 22:55:00,40.5,29.7,30.21,SSW,198,0.0,2.0,65,0.00,,,0.00,meteohub,2013-01-26 03:55:00,
2013-01-25 23:00:00,40.5,29.3,30.21,SSW,198,0.0,2.0,64,0.00,,,0.00,meteohub,2013-01-26 04:00:00,
2013-01-25 23:05:00,40.5,29.3,30.21,SSW,198,0.0,2.0,64,0.00,,,0.00,meteohub,2013-01-26 04:05:00,
2013-01-25 23:10:00,40.5,29.3,30.21,South,186,0.0,2.0,64,0.00,,,0.00,meteohub,2013-01-26 04:10:00,
2013-01-25 23:15:00,40.5,29.3,30.22,South,186,0.0,2.0,64,0.00,,,0.00,meteohub,2013-01-26 04:15:00,
2013-01-25 23:20:00,40.5,28.9,30.21,NNE,33,1.0,3.0,63,0.00,,,0.00,meteohub,2013-01-26 04:20:00,
2013-01-25 23:25:00,40.6,28.6,30.21,NE,51,0.0,3.0,62,0.00,,,0.00,meteohub,2013-01-26 04:25:00,
2013-01-25 23:30:00,40.5,28.0,30.21,NW,312,0.0,4.0,61,0.00,,,0.00,meteohub,2013-01-26 04:30:00,
2013-01-25 23:35:00,40.5,28.4,30.21,NNW,338,0.0,4.0,62,0.00,,,0.00,meteohub,2013-01-26 04:35:00,
2013-01-25 23:40:00,40.5,28.4,30.22,NE,40,0.0,4.0,62,0.00,,,0.00,meteohub,2013-01-26 04:40:00,
2013-01-25 23:45:00,40.5,28.4,30.23,NNW,328,0.0,3.0,62,0.00,,,0.00,meteohub,2013-01-26 04:45:00,
2013-01-25 23:50:00,40.5,28.4,30.23,NW,307,4.0,4.0,62,0.00,,,0.00,meteohub,2013-01-26 04:50:00,
2013-01-25 23:55:00,40.5,28.4,30.23,NNW,344,1.0,5.0,62,0.00,,,0.00,meteohub,2013-01-26 04:55:00,